Time;durP1;ratioP1;P1;durP2;ratioP2;P2;SDS_P1;SDS_P2;PMS_P1;PMS_P2;Temp;Humidity;BMP_temperature;BMP_pressure;BME280_temperature;BME280_humidity;BME280_pressure;Samples;Min_cycle;Max_cycle;Signal;HPM_P1;HPM_P2
2022/10/09 00:00:03;;;;;;;;;16.00;13.75;;;;;13.46;48.66;102091.84;4941910;28;45264;-78
2022/10/09 00:02:29;;;;;;;;;18.75;17.25;;;;;13.36;49.03;102065.31;4911630;28;45416;-78
2022/10/09 00:04:54;;;;;;;;;17.00;15.25;;;;;13.33;49.52;102063.53;4941808;28;45475;-78
2022/10/09 00:07:20;;;;;;;;;17.25;14.25;;;;;13.33;49.08;102067.97;4941732;28;45406;-78
2022/10/09 00:09:45;;;;;;;;;12.75;12.50;;;;;13.32;48.84;102080.31;4941535;28;45367;-78
2022/10/09 00:12:11;;;;;;;;;15.00;14.00;;;;;13.24;49.06;102067.00;4942052;28;45344;-78
2022/10/09 00:14:36;;;;;;;;;13.00;11.25;;;;;13.15;49.38;102058.09;4942215;28;45295;-78
2022/10/09 00:17:01;;;;;;;;;15.25;14.00;;;;;13.15;49.53;102061.66;4930925;28;46100;-78
2022/10/09 00:19:27;;;;;;;;;15.75;14.75;;;;;13.08;49.04;102057.19;4916940;28;45561;-78
2022/10/09 00:21:52;;;;;;;;;17.00;12.50;;;;;13.11;49.31;102058.97;4932777;28;45504;-78
2022/10/09 00:24:18;;;;;;;;;14.50;12.50;;;;;13.09;49.69;102068.63;4941205;28;45382;-78
2022/10/09 00:26:46;;;;;;;;;16.00;13.00;;;;;13.04;49.62;102063.31;4923875;28;46929;-78
2022/10/09 00:29:11;;;;;;;;;15.75;15.75;;;;;13.00;49.84;102056.25;4941780;28;45260;-78
2022/10/09 00:31:37;;;;;;;;;17.50;14.25;;;;;13.06;50.08;102058.94;4924040;28;45327;-78
2022/10/09 00:34:02;;;;;;;;;16.00;14.25;;;;;12.97;50.15;102051.81;4941573;28;45221;-78
2022/10/09 00:36:28;;;;;;;;;16.75;14.75;;;;;12.99;50.22;102051.81;4936558;28;46511;-78
2022/10/09 00:38:55;;;;;;;;;10.75;10.75;;;;;12.95;50.13;102043.00;4941338;28;45427;-78
2022/10/09 00:41:24;;;;;;;;;14.00;11.00;;;;;12.98;50.29;102053.56;4924508;28;45355;-78
2022/10/09 00:43:52;;;;;;;;;13.50;12.50;;;;;13.07;49.98;102066.00;4923952;28;45266;-78
2022/10/09 00:46:46;;;;;;;;;12.00;10.75;;;;;13.01;49.98;102061.53;4936678;28;48106;-78
2022/10/09 00:49:28;;;;;;;;;10.00;8.25;;;;;12.93;50.21;102054.41;4921611;28;45365;-78
2022/10/09 00:51:56;;;;;;;;;13.50;11.25;;;;;12.93;50.20;102057.06;4920789;28;45431;-78
2022/10/09 00:54:26;;;;;;;;;10.25;9.50;;;;;12.84;50.27;102043.78;4928425;28;45259;-78
2022/10/09 00:56:52;;;;;;;;;12.50;10.25;;;;;12.90;50.06;102057.94;4940859;28;45426;-78
2022/10/09 00:59:19;;;;;;;;;14.75;11.50;;;;;12.81;50.31;102049.94;4931186;28;45415;-78
2022/10/09 01:01:44;;;;;;;;;9.50;9.50;;;;;12.79;50.03;102041.09;4928893;28;45352;-79
2022/10/09 01:04:10;;;;;;;;;12.50;10.00;;;;;12.85;50.39;102053.47;4926005;28;45587;-78
2022/10/09 01:06:56;;;;;;;;;10.25;9.25;;;;;12.71;50.49;102030.47;4945483;28;45555;-78
2022/10/09 01:09:29;;;;;;;;;13.00;10.00;;;;;12.68;50.50;102033.09;4953642;28;45228;-78
2022/10/09 01:12:17;;;;;;;;;14.00;11.00;;;;;12.74;50.82;102043.69;4944493;28;45245;-78
2022/10/09 01:15:14;;;;;;;;;10.00;10.00;;;;;12.69;50.86;102040.13;4943702;28;45276;-78
2022/10/09 01:18:16;;;;;;;;;10.25;10.25;;;;;12.66;50.82;102034.81;4916396;28;48374;-78
2022/10/09 01:20:53;;;;;;;;;11.00;10.00;;;;;12.64;51.02;102026.00;4933731;28;45237;-78
2022/10/09 01:23:44;;;;;;;;;9.25;8.75;;;;;12.62;51.16;102035.69;4926843;28;45392;-78
2022/10/09 01:26:15;;;;;;;;;13.50;9.50;;;;;12.59;50.88;102027.75;4941466;28;46050;-78
2022/10/09 01:28:52;;;;;;;;;14.00;12.50;;;;;12.60;51.32;102028.63;4926668;28;46033;-79
2022/10/09 01:31:20;;;;;;;;;10.25;9.75;;;;;12.54;51.11;102006.56;4943831;28;45410;-79
2022/10/09 01:33:46;;;;;;;;;12.75;10.50;;;;;12.54;51.36;102011.84;4944136;28;45587;-78
2022/10/09 01:36:13;;;;;;;;;12.25;11.00;;;;;12.51;51.27;102001.25;4943717;28;45493;-78
2022/10/09 01:38:41;;;;;;;;;11.50;9.00;;;;;12.54;51.29;102006.56;4926216;28;47090;-79
2022/10/09 01:41:07;;;;;;;;;10.25;8.00;;;;;12.45;51.50;101981.81;4943727;28;45399;-78
2022/10/09 01:43:33;;;;;;;;;8.25;7.75;;;;;12.46;51.86;101986.25;4943946;28;45307;-79
2022/10/09 01:46:18;;;;;;;;;10.75;10.75;;;;;12.48;51.27;101987.13;4926132;28;45533;-79
2022/10/09 01:48:58;;;;;;;;;12.75;10.75;;;;;12.44;51.61;101980.94;4943749;28;46182;-78
2022/10/09 01:51:29;;;;;;;;;9.75;8.75;;;;;12.35;52.00;101971.19;4943947;28;45384;-79
2022/10/09 01:54:01;;;;;;;;;19.50;19.00;;;;;12.39;52.24;101977.38;4943447;28;45372;-78
2022/10/09 01:56:32;;;;;;;;;19.25;17.50;;;;;12.36;51.92;101964.13;4943437;28;45466;-78
2022/10/09 01:59:04;;;;;;;;;15.00;13.50;;;;;12.36;52.09;101965.03;4925914;28;48508;-78
2022/10/09 02:01:35;;;;;;;;;30.00;25.00;;;;;12.36;52.13;101967.66;4943589;28;46356;-79
2022/10/09 02:04:07;;;;;;;;;30.75;29.25;;;;;12.42;52.11;101976.50;4926090;28;45486;-78
2022/10/09 02:06:34;;;;;;;;;8.00;8.00;;;;;12.34;51.97;101971.16;4926075;28;45437;-79
2022/10/09 02:09:05;;;;;;;;;7.50;5.50;;;;;12.30;52.09;101964.97;4942080;28;47513;-79
2022/10/09 02:11:32;;;;;;;;;11.00;9.00;;;;;12.24;52.19;101958.75;4943350;28;45613;-78
2022/10/09 02:13:58;;;;;;;;;6.75;6.75;;;;;12.27;52.26;101954.38;4943266;28;45176;-78
2022/10/09 02:16:29;;;;;;;;;8.00;6.50;;;;;12.32;52.06;101959.69;4941902;28;45486;-78
2022/10/09 02:19:02;;;;;;;;;8.00;7.00;;;;;12.23;52.00;101949.06;4914070;28;47171;-79
2022/10/09 02:21:55;;;;;;;;;10.50;8.00;;;;;12.28;52.03;101960.56;4917407;28;45451;-79
2022/10/09 02:24:22;;;;;;;;;7.50;7.50;;;;;12.19;52.20;101937.59;4942972;28;45370;-79
2022/10/09 02:26:49;;;;;;;;;7.00;5.00;;;;;12.20;52.38;101943.75;4943167;28;46772;-79
2022/10/09 02:29:15;;;;;;;;;9.00;8.00;;;;;12.13;52.28;101937.53;4944991;28;47088;-79
2022/10/09 02:31:42;;;;;;;;;6.50;5.50;;;;;12.09;52.35;101920.78;4943413;28;45257;-79
2022/10/09 02:34:15;;;;;;;;;9.25;8.25;;;;;12.14;52.30;101936.66;4926193;28;45681;-79
2022/10/09 02:36:41;;;;;;;;;7.00;7.00;;;;;12.10;52.60;101926.94;4931239;28;45221;-78
2022/10/09 02:39:07;;;;;;;;;6.00;5.75;;;;;12.11;52.84;101924.31;4925508;28;46549;-78
2022/10/09 02:41:33;;;;;;;;;6.00;6.00;;;;;12.01;52.66;101914.56;4943324;28;45240;-78
2022/10/09 02:43:59;;;;;;;;;5.75;5.50;;;;;12.08;52.78;101928.66;4930781;28;45426;-78
2022/10/09 02:46:25;;;;;;;;;8.75;7.25;;;;;12.02;52.60;101926.88;4925641;28;45466;-78
2022/10/09 02:48:50;;;;;;;;;9.50;8.00;;;;;11.91;52.44;101903.00;4940182;28;47347;-77
2022/10/09 02:51:16;;;;;;;;;6.25;6.00;;;;;11.88;52.67;101903.00;4925694;28;45451;-78
2022/10/09 02:53:42;;;;;;;;;8.50;7.50;;;;;11.88;52.48;101905.63;4925505;28;45450;-78
2022/10/09 02:56:08;;;;;;;;;6.75;5.75;;;;;11.85;52.71;101902.06;4942776;28;45455;-78
2022/10/09 02:58:34;;;;;;;;;7.75;6.75;;;;;11.90;52.78;101910.94;4941247;28;46173;-78
2022/10/09 03:01:00;;;;;;;;;5.00;4.00;;;;;11.86;53.03;101910.00;4942976;28;45316;-78
2022/10/09 03:03:25;;;;;;;;;8.50;7.00;;;;;11.83;52.95;101901.16;4925328;28;46764;-78
2022/10/09 03:06:02;;;;;;;;;7.00;7.00;;;;;11.77;52.98;101899.34;4942792;28;45427;-78
2022/10/09 03:08:28;;;;;;;;;11.00;11.00;;;;;11.79;53.04;101894.97;4940965;28;47892;-78
2022/10/09 03:10:54;;;;;;;;;8.25;6.00;;;;;11.78;53.03;101897.56;4938209;28;45454;-78
2022/10/09 03:13:19;;;;;;;;;6.50;6.50;;;;;11.74;53.32;101901.94;4940210;28;45444;-78
2022/10/09 03:15:45;;;;;;;;;7.00;5.75;;;;;11.73;53.32;101884.31;4941068;28;45422;-78
2022/10/09 03:18:10;;;;;;;;;7.50;6.50;;;;;11.79;53.03;101899.38;4927913;28;45764;-78
2022/10/09 03:20:37;;;;;;;;;10.75;7.75;;;;;11.66;53.21;101877.25;4938714;28;45336;-78
2022/10/09 03:23:02;;;;;;;;;6.75;5.75;;;;;11.76;53.29;101896.66;4920396;28;45368;-78
2022/10/09 03:25:28;;;;;;;;;12.75;10.00;;;;;11.67;53.57;101890.44;4924346;28;45320;-78
2022/10/09 03:27:53;;;;;;;;;12.00;9.25;;;;;11.74;53.26;101898.44;4942009;28;46390;-78
2022/10/09 03:30:18;;;;;;;;;12.25;7.00;;;;;11.69;53.42;101886.06;4942515;28;45252;-78
2022/10/09 03:32:44;;;;;;;;;6.25;6.25;;;;;11.66;53.42;101883.41;4925154;28;45398;-78
2022/10/09 03:35:12;;;;;;;;;9.75;9.50;;;;;11.62;53.99;101889.50;4942596;28;45538;-79
2022/10/09 03:37:38;;;;;;;;;19.00;15.75;;;;;11.68;53.88;101891.31;4942009;28;46646;-79
2022/10/09 03:40:04;;;;;;;;;18.00;18.00;;;;;11.58;54.25;101884.19;4942117;28;45483;-78
2022/10/09 03:42:30;;;;;;;;;16.00;15.50;;;;;11.58;54.56;101884.19;4924847;28;45509;-78
2022/10/09 03:44:56;;;;;;;;;16.75;15.75;;;;;11.56;54.75;101884.16;4942086;28;45428;-79
2022/10/09 03:47:21;;;;;;;;;18.25;16.00;;;;;11.61;54.83;101889.50;4939857;28;47340;-79
2022/10/09 03:49:47;;;;;;;;;10.25;8.25;;;;;11.53;55.13;101872.72;4937496;28;45445;-78
2022/10/09 03:52:12;;;;;;;;;17.75;15.50;;;;;11.57;55.10;101885.03;4920998;28;45472;-79
2022/10/09 03:54:38;;;;;;;;;18.75;15.50;;;;;11.53;55.48;101885.91;4933607;28;45565;-78
2022/10/09 03:57:03;;;;;;;;;21.75;18.25;;;;;11.42;55.36;101869.97;4943776;28;45497;-79
2022/10/09 03:59:28;;;;;;;;;20.50;19.50;;;;;11.39;55.41;101870.81;4941861;28;45319;-78
2022/10/09 04:01:54;;;;;;;;;17.75;14.50;;;;;11.42;55.31;101876.13;4941811;28;45304;-78
2022/10/09 04:04:19;;;;;;;;;15.25;14.50;;;;;11.39;55.54;101873.44;4924692;28;45412;-78
2022/10/09 04:06:45;;;;;;;;;17.50;16.50;;;;;11.38;56.09;101876.94;4927644;28;48213;-79
2022/10/09 04:09:10;;;;;;;;;16.25;13.75;;;;;11.35;56.04;101883.94;4951268;28;45237;-78
2022/10/09 04:11:36;;;;;;;;;22.50;17.00;;;;;11.26;56.07;101877.69;4940418;28;45421;-78
2022/10/09 04:14:02;;;;;;;;;16.50;16.00;;;;;11.18;56.42;101878.47;4941815;28;45398;-78
2022/10/09 04:16:27;;;;;;;;;20.50;16.00;;;;;11.21;56.45;101873.22;4940663;28;45244;-78
2022/10/09 04:18:53;;;;;;;;;21.75;18.25;;;;;11.07;56.56;101867.81;4929391;28;45303;-78
2022/10/09 04:21:18;;;;;;;;;19.50;18.75;;;;;11.10;56.74;101874.84;4933776;28;45293;-79
2022/10/09 04:23:44;;;;;;;;;19.75;16.75;;;;;11.07;56.88;101870.44;4941445;28;45461;-79
2022/10/09 04:26:11;;;;;;;;;20.00;17.25;;;;;11.06;56.87;101866.00;4923958;28;46960;-79
2022/10/09 04:28:36;;;;;;;;;19.50;16.75;;;;;11.06;56.97;101871.28;4924274;28;45447;-78
2022/10/09 04:31:02;;;;;;;;;19.50;18.00;;;;;11.03;57.03;101869.50;4922357;28;45371;-79
2022/10/09 04:33:27;;;;;;;;;22.50;16.50;;;;;11.00;57.39;101863.31;4941763;28;45370;-78
2022/10/09 04:35:54;;;;;;;;;14.50;14.50;;;;;11.01;56.85;101858.06;4923979;28;47266;-79
2022/10/09 04:38:20;;;;;;;;;19.00;16.25;;;;;11.03;56.83;101869.50;4923131;28;45271;-78
2022/10/09 04:41:03;;;;;;;;;16.75;15.25;;;;;10.96;56.89;101865.03;4924088;28;45341;-79
2022/10/09 04:43:29;;;;;;;;;15.75;13.50;;;;;11.04;57.17;101876.53;4941316;28;45288;-79
2022/10/09 04:45:55;;;;;;;;;18.00;16.00;;;;;10.91;57.11;101858.81;4923648;28;48393;-79
2022/10/09 04:48:20;;;;;;;;;14.75;14.25;;;;;10.89;57.33;101852.63;4936688;28;45202;-79
2022/10/09 04:50:46;;;;;;;;;16.75;13.50;;;;;10.92;57.16;101864.97;4938798;28;45267;-79
2022/10/09 04:53:12;;;;;;;;;21.75;17.50;;;;;10.88;57.08;101852.59;4941109;28;45185;-79
2022/10/09 04:55:39;;;;;;;;;18.50;15.75;;;;;10.88;56.95;101855.22;4923512;28;48328;-79
2022/10/09 04:58:05;;;;;;;;;15.50;13.75;;;;;10.81;57.30;101841.13;4923705;28;45473;-79
2022/10/09 05:00:33;;;;;;;;;18.75;17.75;;;;;10.86;57.55;101857.00;4932992;28;45370;-79
2022/10/09 05:03:01;;;;;;;;;20.25;16.25;;;;;10.79;57.54;101850.75;4936666;28;45406;-79
2022/10/09 05:05:27;;;;;;;;;18.00;14.75;;;;;10.73;57.51;101843.66;4939592;28;45674;-78
2022/10/09 05:07:52;;;;;;;;;15.75;15.00;;;;;10.68;57.63;101840.06;4931263;28;45244;-79
2022/10/09 05:10:18;;;;;;;;;15.50;14.50;;;;;10.77;57.57;101858.63;4940833;28;45545;-79
2022/10/09 05:12:43;;;;;;;;;12.00;12.00;;;;;10.68;57.73;101839.19;4923839;28;45470;-78
2022/10/09 05:15:09;;;;;;;;;14.00;14.00;;;;;10.69;57.63;101852.38;4923541;28;46428;-78
2022/10/09 05:17:34;;;;;;;;;17.25;15.00;;;;;10.73;57.84;101853.31;4916122;28;45715;-78
2022/10/09 05:19:59;;;;;;;;;15.50;15.25;;;;;10.72;57.71;101843.59;4950594;28;45563;-78
2022/10/09 05:22:25;;;;;;;;;17.25;16.25;;;;;10.67;57.82;101840.94;4937310;28;45533;-78
2022/10/09 05:24:50;;;;;;;;;18.25;16.25;;;;;10.66;58.00;101836.50;4937886;28;46712;-78
2022/10/09 05:27:16;;;;;;;;;18.25;14.50;;;;;10.67;57.91;101840.94;4935200;28;45525;-77
2022/10/09 05:29:41;;;;;;;;;9.50;9.50;;;;;10.61;57.56;101843.47;4940962;28;45345;-78
2022/10/09 05:32:07;;;;;;;;;19.00;18.00;;;;;10.61;57.86;101840.81;4936470;28;45440;-78
2022/10/09 05:34:33;;;;;;;;;19.00;15.50;;;;;10.60;57.64;101845.22;4919735;28;48120;-78
2022/10/09 05:36:59;;;;;;;;;16.75;14.00;;;;;10.51;57.77;101831.94;4923383;28;45431;-78
2022/10/09 05:39:24;;;;;;;;;18.50;17.00;;;;;10.52;57.95;101827.56;4938937;28;45245;-78
2022/10/09 05:41:50;;;;;;;;;13.50;13.00;;;;;10.54;58.03;101828.47;4940469;28;45236;-79
2022/10/09 05:44:15;;;;;;;;;18.50;17.75;;;;;10.47;58.29;101822.22;4940440;28;46413;-78
2022/10/09 05:46:41;;;;;;;;;19.50;18.25;;;;;10.46;58.53;101822.22;4922690;28;45408;-78
2022/10/09 05:49:06;;;;;;;;;16.25;14.00;;;;;10.48;58.62;101821.38;4923911;28;45325;-77
2022/10/09 05:51:36;;;;;;;;;18.00;17.00;;;;;10.47;58.55;101824.84;4939401;28;45485;-77
2022/10/09 05:54:03;;;;;;;;;15.00;13.25;;;;;10.48;58.78;101825.75;4938879;28;46237;-77
2022/10/09 05:56:31;;;;;;;;;18.75;17.00;;;;;10.42;58.48;101813.34;4934772;28;45254;-77
2022/10/09 05:59:02;;;;;;;;;15.75;15.75;;;;;10.39;58.73;101805.44;4936047;28;45393;-76
2022/10/09 06:01:32;;;;;;;;;18.00;17.00;;;;;10.43;59.18;101812.53;4935549;28;45406;-76
2022/10/09 06:03:59;;;;;;;;;15.75;13.75;;;;;10.42;58.80;101817.75;4934786;28;46402;-76
2022/10/09 06:06:27;;;;;;;;;12.00;12.00;;;;;10.36;59.17;101808.00;4926337;28;45555;-77
2022/10/09 06:08:53;;;;;;;;;16.00;13.50;;;;;10.32;59.18;101812.38;4943330;28;45342;-76
2022/10/09 06:11:24;;;;;;;;;15.50;13.25;;;;;10.30;59.30;101814.09;4943418;28;45426;-76
2022/10/09 06:13:50;;;;;;;;;18.75;14.50;;;;;10.34;59.18;101821.19;4914290;28;47097;-76
2022/10/09 06:16:16;;;;;;;;;14.00;14.00;;;;;10.28;59.05;101802.63;4943238;28;45429;-77
2022/10/09 06:18:47;;;;;;;;;20.75;19.75;;;;;10.31;59.16;101817.59;4930343;28;45491;-77
2022/10/09 06:21:14;;;;;;;;;16.50;14.75;;;;;10.22;59.12;101799.91;4934740;28;45308;-77
2022/10/09 06:23:40;;;;;;;;;16.75;16.75;;;;;10.27;59.01;101810.50;4922679;28;47508;-77
2022/10/09 06:26:08;;;;;;;;;17.75;16.25;;;;;10.29;58.82;101817.59;4925303;28;45507;-78
2022/10/09 06:28:34;;;;;;;;;16.25;14.00;;;;;10.29;58.95;101812.31;4944975;28;45455;-77
2022/10/09 06:31:04;;;;;;;;;15.25;12.25;;;;;10.31;59.02;101804.44;4950380;28;45165;-77
2022/10/09 06:33:35;;;;;;;;;21.00;17.00;;;;;10.29;59.03;101809.69;4942522;28;45694;-77
2022/10/09 06:36:02;;;;;;;;;19.00;16.50;;;;;10.31;59.05;101814.97;4942697;28;45329;-76
2022/10/09 06:38:28;;;;;;;;;17.00;14.00;;;;;10.28;58.46;101804.41;4942605;28;45284;-77
2022/10/09 06:40:53;;;;;;;;;13.50;9.25;;;;;10.29;58.27;101803.53;4942789;28;45526;-76
2022/10/09 06:43:19;;;;;;;;;13.00;11.25;;;;;10.27;58.32;101800.88;4942723;28;45500;-76
2022/10/09 06:45:44;;;;;;;;;10.75;9.75;;;;;10.29;58.44;101799.16;4942568;28;45419;-76
2022/10/09 06:48:09;;;;;;;;;10.00;9.00;;;;;10.28;58.37;101797.38;4942846;28;45312;-78
2022/10/09 06:50:38;;;;;;;;;12.75;12.00;;;;;10.35;58.51;101807.13;4938328;28;45492;-78
2022/10/09 06:53:04;;;;;;;;;10.50;10.50;;;;;10.29;58.29;101796.53;4938735;28;46265;-80
2022/10/09 06:55:35;;;;;;;;;12.25;12.25;;;;;10.42;58.59;101810.72;4926125;28;45509;-83
2022/10/09 06:58:00;;;;;;;;;20.25;18.50;;;;;10.46;58.56;101803.78;4941244;28;45388;-82
2022/10/09 07:00:26;;;;;;;;;13.25;11.50;;;;;10.54;58.50;101810.03;4938361;28;45431;-83
2022/10/09 07:02:54;;;;;;;;;18.50;17.00;;;;;10.52;58.38;101799.47;4924164;28;47057;-81
2022/10/09 07:05:20;;;;;;;;;15.00;12.75;;;;;10.60;58.44;101818.00;4942422;28;45277;-81
2022/10/09 07:07:45;;;;;;;;;11.50;11.50;;;;;10.61;58.37;101790.78;4925168;28;45347;-81
2022/10/09 07:10:11;;;;;;;;;13.25;11.00;;;;;10.61;58.02;101782.91;4924911;28;45424;-80
2022/10/09 07:12:36;;;;;;;;;12.50;11.50;;;;;10.74;58.27;101805.00;4924874;28;48079;-80
2022/10/09 07:15:04;;;;;;;;;12.25;10.00;;;;;10.70;57.89;101792.69;4925016;28;45319;-78
2022/10/09 07:17:30;;;;;;;;;13.00;10.00;;;;;10.73;57.71;101796.22;4942048;28;45435;-78
2022/10/09 07:19:55;;;;;;;;;11.75;11.25;;;;;10.76;58.03;101793.63;4923379;28;45451;-78
2022/10/09 07:22:21;;;;;;;;;11.00;10.00;;;;;10.82;58.12;101806.00;4908626;28;46715;-78
2022/10/09 07:24:47;;;;;;;;;14.00;10.75;;;;;10.85;58.05;101800.75;4940906;28;45530;-78
2022/10/09 07:27:13;;;;;;;;;11.00;10.00;;;;;10.88;57.79;101792.00;4944837;28;45554;-78
2022/10/09 07:29:39;;;;;;;;;11.25;9.00;;;;;10.90;58.18;101785.88;4924115;28;45654;-79
2022/10/09 07:32:04;;;;;;;;;10.25;10.25;;;;;11.02;57.99;101798.34;4925897;28;45412;-79
2022/10/09 07:34:30;;;;;;;;;13.25;11.50;;;;;11.01;57.67;101775.47;4926276;28;45309;-79
2022/10/09 07:36:55;;;;;;;;;13.50;12.00;;;;;11.06;57.66;101784.31;4925492;28;45238;-79
2022/10/09 07:39:24;;;;;;;;;11.00;8.25;;;;;11.08;57.76;101776.44;4924164;28;45197;-81
2022/10/09 07:41:51;;;;;;;;;13.00;11.00;;;;;11.14;57.51;101766.84;4941345;28;45476;-83
2022/10/09 07:44:17;;;;;;;;;11.25;11.25;;;;;11.19;57.59;101767.75;4924431;28;45502;-81
2022/10/09 07:46:43;;;;;;;;;3.00;1.50;;;;;11.27;57.66;101770.47;4917326;28;45637;-80
2022/10/09 07:49:08;;;;;;;;;10.75;9.25;;;;;11.41;57.38;101784.72;4932734;28;45322;-80
2022/10/09 07:51:34;;;;;;;;;12.00;12.00;;;;;11.44;57.40;101776.81;4932872;28;45453;-79
2022/10/09 07:54:03;;;;;;;;;9.25;9.25;;;;;11.47;57.40;101766.28;4929253;28;45251;-79
2022/10/09 07:56:31;;;;;;;;;8.00;8.00;;;;;11.60;57.00;101771.66;4923991;28;45304;-79
2022/10/09 07:58:59;;;;;;;;;11.75;9.50;;;;;11.56;57.31;101746.16;4940183;28;45496;-79
2022/10/09 08:01:29;;;;;;;;;10.00;8.75;;;;;11.69;57.30;101763.84;4923472;28;48756;-82
2022/10/09 08:03:55;;;;;;;;;10.50;8.50;;;;;11.66;57.12;101743.59;4941631;28;45524;-79
2022/10/09 08:06:21;;;;;;;;;9.50;9.25;;;;;11.81;57.11;101755.13;4920984;28;45435;-79
2022/10/09 08:08:53;;;;;;;;;9.00;9.00;;;;;11.90;57.01;101756.13;4919003;28;45450;-79
2022/10/09 08:11:19;;;;;;;;;9.50;9.50;;;;;11.98;57.14;101757.94;4924881;28;46650;-78
2022/10/09 08:13:46;;;;;;;;;9.75;9.25;;;;;12.00;56.74;101746.53;4940802;28;45390;-78
2022/10/09 08:16:12;;;;;;;;;13.00;12.00;;;;;12.11;56.50;101749.22;4941367;28;45379;-78
2022/10/09 08:18:38;;;;;;;;;12.75;11.75;;;;;12.18;56.26;101747.50;4924180;28;45365;-78
2022/10/09 08:21:12;;;;;;;;;10.00;9.75;;;;;12.20;56.34;101738.72;4916913;28;48335;-78
2022/10/09 08:23:37;;;;;;;;;8.25;7.25;;;;;12.34;56.36;101755.50;4937017;28;45647;-78
2022/10/09 08:26:10;;;;;;;;;9.00;9.00;;;;;12.37;55.80;101736.16;4923636;28;45528;-78
2022/10/09 08:28:36;;;;;;;;;8.25;8.00;;;;;12.56;55.76;101751.22;4939970;28;45439;-82
2022/10/09 08:31:09;;;;;;;;;13.25;10.75;;;;;12.57;55.80;101737.13;4935026;28;47716;-80
2022/10/09 08:33:37;;;;;;;;;13.00;11.50;;;;;12.66;55.36;101732.75;4944928;28;45546;-80
2022/10/09 08:36:20;;;;;;;;;12.00;10.75;;;;;12.75;55.13;101731.03;4915689;28;45505;-81
2022/10/09 08:38:49;;;;;;;;;10.50;10.50;;;;;12.78;55.05;101722.25;4927182;28;45474;-80
2022/10/09 08:41:23;;;;;;;;;12.75;12.50;;;;;12.94;54.70;101734.63;4939559;28;46370;-80
2022/10/09 08:43:55;;;;;;;;;18.25;14.50;;;;;13.01;54.55;101730.22;4922949;28;45517;-80
2022/10/09 08:46:41;;;;;;;;;14.25;13.25;;;;;13.07;54.36;101730.25;4941944;28;45505;-80
2022/10/09 08:49:25;;;;;;;;;11.00;10.75;;;;;13.16;54.53;101717.03;4929510;28;45761;-80
2022/10/09 08:51:53;;;;;;;;;11.25;10.75;;;;;13.25;53.93;101724.06;4910391;28;46741;-80
2022/10/09 08:54:41;;;;;;;;;13.75;12.75;;;;;13.39;54.07;101722.38;4939702;28;45967;-81
2022/10/09 08:57:30;;;;;;;;;;;;;;;;;;;;;
2022/10/09 08:59:56;;;;;;;;;9.25;8.50;;;;;13.59;53.48;101718.84;4939531;28;71271;-81
2022/10/09 09:03:01;;;;;;;;;9.75;9.75;;;;;13.69;53.61;101712.66;4921896;28;47074;-81
2022/10/09 09:05:38;;;;;;;;;14.75;14.25;;;;;13.77;53.27;101707.38;4936806;28;45426;-81
2022/10/09 09:08:30;;;;;;;;;11.50;10.75;;;;;13.84;53.10;101715.28;4923503;28;45369;-80
2022/10/09 09:11:21;;;;;;;;;12.25;12.00;;;;;13.92;53.11;101706.44;4940693;28;45470;-80
2022/10/09 09:13:58;;;;;;;;;14.50;12.75;;;;;13.99;53.12;101693.19;4953690;28;45861;-80
2022/10/09 09:16:42;;;;;;;;;11.75;11.75;;;;;14.08;53.06;101689.63;4940850;28;45308;-80
2022/10/09 09:19:19;;;;;;;;;15.50;13.25;;;;;14.14;52.45;101687.00;4923540;28;45304;-80
2022/10/09 09:21:50;;;;;;;;;15.25;15.00;;;;;14.24;52.58;101687.81;4927933;28;45397;-80
2022/10/09 09:24:32;;;;;;;;;14.75;13.50;;;;;14.29;52.31;101688.69;4929516;28;46274;-80
2022/10/09 09:27:04;;;;;;;;;19.00;18.75;;;;;14.41;52.23;101685.13;4926743;28;45453;-80
2022/10/09 09:29:52;;;;;;;;;14.75;11.75;;;;;14.48;51.94;101676.22;4944337;28;45387;-81
2022/10/09 09:32:23;;;;;;;;;15.50;13.00;;;;;14.58;51.92;101675.34;4915169;28;45494;-80
2022/10/09 09:34:50;;;;;;;;;15.75;15.00;;;;;14.65;51.56;101668.22;4926584;28;47128;-81
2022/10/09 09:37:15;;;;;;;;;16.00;15.00;;;;;14.72;51.79;101660.22;4926444;28;45423;-80
2022/10/09 09:39:42;;;;;;;;;16.00;14.75;;;;;14.84;51.37;101661.06;4926866;28;45302;-80
2022/10/09 09:42:17;;;;;;;;;24.25;19.75;;;;;14.92;51.55;101651.28;4923574;28;45512;-80
2022/10/09 09:45:11;;;;;;;;;14.50;14.50;;;;;15.05;51.10;101649.41;4939133;28;47127;-80
2022/10/09 09:48:19;;;;;;;;;19.25;17.75;;;;;15.16;51.02;101639.59;4932626;28;45361;-81
2022/10/09 09:50:51;;;;;;;;;17.00;14.75;;;;;15.27;50.90;101639.53;4856937;29;45253;-81
2022/10/09 09:53:36;;;;;;;;;12.00;12.00;;;;;15.39;50.96;101644.69;4905277;28;45523;-81
2022/10/09 09:56:06;;;;;;;;;11.25;11.00;;;;;15.50;50.55;101644.59;4925976;28;46142;-81
2022/10/09 09:58:35;;;;;;;;;15.50;14.50;;;;;15.61;50.52;101634.75;4926332;28;45313;-80
2022/10/09 10:01:05;;;;;;;;;8.00;8.00;;;;;15.70;50.08;101636.47;4938826;28;45482;-81
2022/10/09 10:03:55;;;;;;;;;8.00;7.75;;;;;15.83;50.00;101632.81;4939122;28;45791;-81
2022/10/09 10:06:31;;;;;;;;;11.25;9.75;;;;;15.91;49.69;101622.97;4925938;28;48280;-80
2022/10/09 10:09:01;;;;;;;;;8.50;8.00;;;;;16.01;49.69;101623.72;4943152;28;45555;-81
2022/10/09 10:11:41;;;;;;;;;10.50;10.50;;;;;16.15;49.83;101619.13;4943820;28;45426;-81
2022/10/09 10:14:08;;;;;;;;;10.75;9.00;;;;;16.28;49.18;101620.72;4943383;28;45316;-81
2022/10/09 10:16:39;;;;;;;;;9.00;7.75;;;;;16.40;48.78;101614.34;4943202;28;45552;-81
2022/10/09 10:19:14;;;;;;;;;8.00;8.00;;;;;16.50;48.51;101605.38;4913318;28;45519;-80
2022/10/09 10:21:47;;;;;;;;;10.75;9.75;;;;;16.62;48.42;101595.44;4931193;28;45457;-81
2022/10/09 10:24:19;;;;;;;;;9.50;8.25;;;;;16.72;48.63;101597.94;4930500;28;45317;-81
2022/10/09 10:26:55;;;;;;;;;6.00;6.00;;;;;16.87;48.27;101588.88;4939657;28;46115;-81
2022/10/09 10:29:30;;;;;;;;;11.25;10.50;;;;;17.02;47.85;101584.19;4942926;28;45478;-81
2022/10/09 10:32:15;;;;;;;;;8.75;8.50;;;;;17.16;47.69;101590.16;4941362;28;45196;-81
2022/10/09 10:34:54;;;;;;;;;9.75;9.25;;;;;17.28;47.42;101583.75;4942808;28;45537;-81
2022/10/09 10:37:33;;;;;;;;;6.25;6.00;;;;;17.44;47.01;101587.00;4932431;28;46678;-80
2022/10/09 10:40:06;;;;;;;;;9.75;7.75;;;;;17.55;47.22;101577.91;4925120;28;45724;-81
2022/10/09 10:43:26;;;;;;;;;9.00;8.00;;;;;17.72;46.48;101577.59;4943347;28;45513;-81
2022/10/09 10:46:58;;;;;;;;;;;;;;;;;;;;;
2022/10/09 10:49:25;;;;;;;;;6.75;6.75;;;;;18.04;46.21;101554.75;4844652;29;75662;-81
2022/10/09 10:52:52;;;;;;;;;16.50;15.00;;;;;18.21;45.74;101554.38;4848417;29;45827;-81
2022/10/09 11:02:37;;;;;;;;;9.25;9.25;;;;;19.05;44.93;101531.00;4848247;29;45566;-81
2022/10/09 11:34:09;;;;;;;;;6.00;4.00;;;;;23.10;40.27;101475.88;4737151;29;45516;-83
2022/10/09 11:36:43;;;;;;;;;3.33;3.33;;;;;26.98;38.17;101462.78;4831773;29;45615;-82
2022/10/09 11:39:21;;;;;;;;;4.00;3.67;;;;;29.74;34.45;101459.78;4863631;29;45771;-82
2022/10/09 11:41:54;;;;;;;;;3.00;3.00;;;;;31.56;31.40;101450.34;4862598;28;48038;-83
2022/10/09 11:44:55;;;;;;;;;;;;;;;;;;;;;
2022/10/09 11:54:24;;;;;;;;;4.67;3.67;;;;;36.30;23.43;101442.66;4868073;29;45717;-82
2022/10/09 11:57:19;;;;;;;;;5.00;5.00;;;;;36.76;22.91;101437.94;4915533;28;45219;-82
2022/10/09 11:59:45;;;;;;;;;3.67;3.67;;;;;37.13;22.59;101428.59;4922512;28;45232;-82
2022/10/09 12:02:59;;;;;;;;;5.67;4.67;;;;;37.50;21.91;101425.53;4934591;28;45321;-83
2022/10/09 12:06:02;;;;;;;;;6.67;5.33;;;;;37.52;20.18;101431.72;4920937;28;46861;-83
2022/10/09 12:08:37;;;;;;;;;3.33;2.00;;;;;37.32;20.68;101424.75;4941879;28;45751;-82
2022/10/09 12:11:16;;;;;;;;;2.00;2.00;;;;;37.44;20.50;101415.16;4937087;28;45465;-82
2022/10/09 12:16:50;;;;;;;;;2.67;2.67;;;;;38.52;19.56;101415.31;4941184;28;45696;-83
2022/10/09 12:19:22;;;;;;;;;2.67;2.00;;;;;39.12;18.95;101405.75;4924065;28;45440;-84
2022/10/09 12:23:18;;;;;;;;;3.67;3.00;;;;;39.75;17.90;101401.19;4927241;28;45475;-85